Flight Track Log - Related Links

Times and Time Zones

All times are in EDT time to prevent confusion due to time zone crossing. See the ASQ4209 flight status page for this flight to view local times or setup timezone preferences in your user account.


Time Position Orientation Groundspeed Altitude Reporting Facility
EDT Latitude Longitude Course Direction KTS MPH feet Rate Location/Type
Tue 09:51:11 PM 29.9639 -95.3433 90° East 144 166 800  Level Houston Center
Tue 09:52:06 PM 29.9464 -95.2922 112° Southeast 227 261 2,200 1,872 Climbing Houston Center
Tue 09:53:00 PM 29.9256 -95.2250 110° East 252 290 4,200 2,231 Climbing Houston Center
Tue 09:54:00 PM 29.9834 -94.7899 90° East  Level FlightAware Approximate
Tue 09:54:07 PM 29.9081 -95.1417 104° East 270 311 6,700  Level Houston Center
Tue 09:55:00 PM 29.9833 -94.6540 90° East  Level FlightAware Approximate
Tue 09:55:09 PM 29.9178 -95.0525 83° East 281 323 9,300  Level Houston Center
Tue 09:56:00 PM 29.9834 -94.5181 90° East  Level FlightAware Approximate
Tue 09:56:10 PM 29.9275 -94.9633 83° East 279 321 11,300  Level Houston Center
Tue 09:57:11 PM 29.9378 -94.8647 83° East 305 351 12,600 1,279 Climbing Houston Center
Tue 09:58:12 PM 29.9497 -94.7556 83° East 337 388 13,900 1,328 Climbing Houston Center
Tue 09:59:13 PM 29.9611 -94.6408 83° East 358 412 15,300 1,377 Climbing Houston Center
Tue 10:00:14 PM 29.9736 -94.5239 83° East 366 421 16,700 1,230 Climbing Houston Center
Tue 10:01:15 PM 29.9858 -94.3953 84° East 378 435 17,800 1,082 Climbing Houston Center
Tue 10:02:16 PM 30.0000 -94.2711 82° East 389 448 18,900 1,279 Climbing Houston Center
Tue 10:03:17 PM 30.0164 -94.1458 81° East 398 458 20,400 1,279 Climbing Houston Center
Tue 10:04:18 PM 30.0319 -94.0183 82° East 402 463 21,500 1,082 Climbing Houston Center
Tue 10:05:19 PM 30.0475 -93.8881 82° East 410 472 22,600 1,180 Climbing Houston Center
Tue 10:06:20 PM 30.0672 -93.7272 82° East 423 487 23,900 1,377 Climbing Houston Center
Tue 10:07:21 PM 30.0828 -93.5956 82° East 420 483 25,400 1,377 Climbing Houston Center
Tue 10:08:22 PM 30.0981 -93.4647 82° East 418 481 26,700 1,230 Climbing Houston Center
Tue 10:09:23 PM 30.1125 -93.3333 83° East 418 481 27,900 1,230 Climbing Houston Center
Tue 10:10:24 PM 30.1294 -93.2019 81° East 418 481 29,200 1,230 Climbing Houston Center
Tue 10:11:25 PM 30.1583 -93.0736 75° East 426 490 30,400 1,230 Climbing Houston Center
Tue 10:12:26 PM 30.2189 -92.9619 58° Northeast 417 480 31,700 1,289 Climbing Houston Center
Tue 10:13:26 PM 30.2814 -92.8492 57° Northeast 418 481 33,000 1,388 Climbing Houston Center
Tue 10:14:27 PM 30.3547 -92.7128 58° Northeast 418 481 34,500 984 Climbing Houston Center
Tue 10:15:28 PM 30.4164 -92.5997 58° Northeast 417 480 35,000 246 Climbing Houston Center
Tue 10:16:29 PM 30.4758 -92.4886 58° Northeast 444 511 35,000  Level Houston Center
Tue 10:17:30 PM 30.5461 -92.3586 58° Northeast 477 549 35,000  Level Houston Center
Tue 10:18:31 PM 30.6306 -92.2006 58° Northeast 481 554 35,000  Level Houston Center
Tue 10:19:32 PM 30.6978 -92.0781 57° Northeast 459 528 35,000  Level Houston Center
Tue 10:20:33 PM 30.7600 -91.9608 58° Northeast 433 498 35,000  Level Houston Center
Tue 10:21:34 PM 30.8214 -91.8467 58° Northeast 423 487 35,000  Level Houston Center
Tue 10:22:35 PM 30.8825 -91.7322 58° Northeast 420 483 35,000  Level Houston Center
Tue 10:23:36 PM 30.9447 -91.6161 58° Northeast 422 486 35,000  Level Houston Center
Tue 10:24:37 PM 31.0092 -91.4931 59° Northeast 437 503 35,000  Level Houston Center
Tue 10:25:38 PM 31.0853 -91.3483 58° Northeast 456 525 35,000  Level Houston Center
Tue 10:26:39 PM 31.1558 -91.2139 58° Northeast 474 545 35,000  Level Houston Center
Tue 10:27:40 PM 31.2275 -91.0783 58° Northeast 484 557 35,000  Level Houston Center
Tue 10:28:41 PM 31.2958 -90.9461 59° Northeast 479 551 35,000  Level Houston Center
Tue 10:29:42 PM 31.3650 -90.8131 59° Northeast 477 549 35,000  Level Houston Center
Tue 10:30:43 PM 31.4347 -90.6772 59° Northeast 483 556 35,000  Level Houston Center
Tue 10:31:44 PM 31.5033 -90.5436 59° Northeast 480 552 35,000  Level Houston Center
Tue 10:32:45 PM 31.5736 -90.4083 59° Northeast 484 557 35,000  Level Houston Center
Tue 10:33:46 PM 31.6453 -90.2728 58° Northeast 488 562 35,000  Level Houston Center
Tue 10:34:46 PM 31.7319 -90.1492 50° Northeast 491 565 35,000  Level Houston Center
Tue 10:35:47 PM 31.8197 -90.0281 50° Northeast 488 562 35,000  Level Houston Center
Tue 10:36:44 PM 31.9050 -89.9094 50° Northeast 485 558 35,000  Level Memphis Center
Tue 10:37:44 PM 31.9922 -89.7914 49° Northeast 480 552 35,000  Level Memphis Center
Tue 10:38:44 PM 32.0772 -89.6708 50° Northeast 480 552 35,000  Level Memphis Center
Tue 10:39:44 PM 32.1642 -89.5500 50° Northeast 480 552 35,000  Level Memphis Center
Tue 10:40:44 PM 32.2489 -89.4289 50° Northeast 480 552 35,000  Level Memphis Center
Tue 10:41:44 PM 32.3356 -89.3075 50° Northeast 480 552 35,000  Level Memphis Center
Tue 10:42:44 PM 32.4222 -89.1883 49° Northeast 480 552 35,000  Level Memphis Center
Tue 10:43:44 PM 32.5064 -89.0664 51° Northeast 480 552 35,000  Level Memphis Center
Tue 10:44:44 PM 32.6011 -88.9344 50° Northeast 480 552 35,000  Level Memphis Center
Tue 10:45:44 PM 32.6872 -88.8119 50° Northeast 480 552 35,000  Level Memphis Center
Tue 10:46:44 PM 32.7733 -88.6919 50° Northeast 480 552 35,000  Level Memphis Center
Tue 10:47:44 PM 32.8553 -88.5694 51° Northeast 480 552 35,000  Level Memphis Center
Tue 10:48:44 PM 32.9411 -88.4486 50° Northeast 480 552 35,000  Level Memphis Center
Tue 10:50:20 PM 33.0664 -88.2675 50° Northeast 512 589 35,000  Level Atlanta Center
Tue 10:51:20 PM 33.1497 -88.1450 51° Northeast 494 568 35,000  Level Atlanta Center
Tue 10:52:20 PM 33.2311 -88.0222 52° Northeast 481 554 35,000  Level Atlanta Center
Tue 10:53:20 PM 33.3142 -87.8992 51° Northeast 476 548 35,000  Level Atlanta Center
Tue 10:54:20 PM 33.4061 -87.7639 51° Northeast 483 556 35,000  Level Atlanta Center
Tue 10:55:20 PM 33.4911 -87.6431 50° Northeast 483 556 35,000  Level Atlanta Center
Tue 10:56:20 PM 33.5719 -87.5194 52° Northeast 478 550 35,000  Level Atlanta Center
Tue 10:57:20 PM 33.6525 -87.3978 51° Northeast 478 550 35,000  Level Atlanta Center
Tue 10:58:20 PM 33.7372 -87.2761 50° Northeast 478 550 35,000  Level Atlanta Center
Tue 10:59:20 PM 33.8197 -87.1517 51° Northeast 478 550 35,000  Level Atlanta Center
Tue 11:00:20 PM 33.9000 -87.0294 52° Northeast 478 550 35,000  Level Atlanta Center
Tue 11:01:20 PM 33.9842 -86.9072 50° Northeast 478 550 35,000  Level Atlanta Center
Tue 11:02:20 PM 34.0642 -86.7847 52° Northeast 478 550 35,000  Level Atlanta Center
Tue 11:03:20 PM 34.1461 -86.6592 52° Northeast 473 544 35,000 -200 Level Atlanta Center
Tue 11:04:20 PM 34.2258 -86.5411 51° Northeast 468 539 34,600 -750 Descending Atlanta Center
Tue 11:05:20 PM 34.3056 -86.4178 52° Northeast 468 539 33,500 -800 Descending Atlanta Center
Tue 11:06:20 PM 34.3831 -86.3017 51° Northeast 454 522 33,000 -250 Descending Atlanta Center
Tue 11:07:20 PM 34.4603 -86.1803 52° Northeast 449 517 33,000  Level Atlanta Center
Tue 11:08:20 PM 34.5417 -86.0611 50° Northeast 449 517 33,000 -100 Level Atlanta Center
Tue 11:09:20 PM 34.6186 -85.9419 52° Northeast 449 517 32,800 -750 Descending Atlanta Center
Tue 11:10:20 PM 34.6956 -85.8197 53° Northeast 449 517 31,500 -1,250 Descending Atlanta Center
Tue 11:11:20 PM 34.7636 -85.7178 51° Northeast 444 511 30,300 -1,500 Descending Atlanta Center
Tue 11:12:20 PM 34.8406 -85.5928 53° Northeast 450 518 28,500 -1,900 Descending Atlanta Center
Tue 11:13:20 PM 34.9214 -85.4700 51° Northeast 455 524 26,500 -1,800 Descending Atlanta Center
Tue 11:14:20 PM 35.0019 -85.3422 52° Northeast 460 529 24,900 -1,650 Descending Atlanta Center
Tue 11:15:20 PM 35.0806 -85.2214 51° Northeast 460 529 23,200 -2,250 Descending Atlanta Center
Tue 11:16:20 PM 35.1544 -85.1031 53° Northeast 448 516 20,400 -2,300 Descending Atlanta Center
Tue 11:17:20 PM 35.2264 -84.9872 53° Northeast 438 504 18,600 -1,350 Descending Atlanta Center
Tue 11:18:20 PM 35.2981 -84.8761 52° Northeast 427 491 17,700 -950 Descending Atlanta Center
Tue 11:19:20 PM 35.3678 -84.7647 52° Northeast 421 484 16,700 -1,050 Descending Atlanta Center
Tue 11:20:20 PM 35.4350 -84.6556 53° Northeast 411 473 15,600 -1,050 Descending Atlanta Center
Tue 11:21:20 PM 35.5003 -84.5542 52° Northeast 392 451 14,600 -1,100 Descending Atlanta Center
Tue 11:22:20 PM 35.5756 -84.4650 44° Northeast 374 430 13,400 -1,200 Descending Atlanta Center
Tue 11:23:20 PM 35.6447 -84.3836 44° Northeast 355 409 12,200 -1,800 Descending Atlanta Center
Tue 11:24:20 PM 35.7056 -84.3047 46° Northeast 304 350 9,800 -2,600 Descending Atlanta Center
Tue 11:25:20 PM 35.7556 -84.2306 50° Northeast 280 322 7,000 -2,400 Descending Atlanta Center
Tue 11:26:20 PM 35.8017 -84.1564 53° Northeast 275 316 5,000 -1,500 Descending Atlanta Center
Tue 11:27:20 PM 35.8517 -84.0900 47° Northeast 275 316 4,000 -600 Descending Atlanta Center
Tue 11:28:20 PM 35.8956 -84.0233 51° Northeast 260 299 3,800 -600 Descending Atlanta Center
Tue 11:29:20 PM 35.9228 -83.9489 66° East 243 280 2,800 -1,000 Descending Atlanta Center

Login

Don't have an account? Register now (free) for customized features, flight alerts, and more!